Time;durP1;ratioP1;P1;durP2;ratioP2;P2;SDS_P1;SDS_P2;PMS_P1;PMS_P2;Temp;Humidity;BMP_temperature;BMP_pressure;BME280_temperature;BME280_humidity;BME280_pressure;Samples;Min_cycle;Max_cycle;Signal;HPM_P1;HPM_P2
2024/01/08 00:00:03;;;;;;;32.10;20.53;;;-1.80;99.90;;;;;;4967698;28;20224;-60
2024/01/08 00:02:30;;;;;;;18.93;16.87;;;-1.90;99.90;;;;;;4953126;28;20270;-60
2024/01/08 00:04:57;;;;;;;22.63;17.23;;;-2.00;99.90;;;;;;4972283;28;20667;-61
2024/01/08 00:07:25;;;;;;;17.47;15.67;;;-2.00;99.90;;;;;;4948781;28;20199;-61
2024/01/08 00:09:52;;;;;;;16.43;14.77;;;-2.00;99.90;;;;;;4967837;28;20722;-61
2024/01/08 00:12:19;;;;;;;15.97;14.87;;;-2.10;99.90;;;;;;4956301;28;20230;-61
2024/01/08 00:14:49;;;;;;;16.00;14.80;;;-2.10;99.90;;;;;;4953075;28;20210;-61
2024/01/08 00:17:16;;;;;;;16.57;15.00;;;-2.20;99.90;;;;;;4972318;28;20293;-61
2024/01/08 00:19:43;;;;;;;14.50;13.70;;;-2.30;99.90;;;;;;4955081;28;20202;-61
2024/01/08 00:22:10;;;;;;;15.17;14.17;;;-2.30;99.90;;;;;;4938285;28;20254;-61
2024/01/08 00:24:37;;;;;;;15.17;14.23;;;-2.40;99.90;;;;;;4969204;28;20191;-60
2024/01/08 00:27:04;;;;;;;15.63;14.67;;;-2.40;99.90;;;;;;4971853;28;20195;-61
2024/01/08 00:29:31;;;;;;;16.03;14.83;;;-2.40;99.90;;;;;;4961218;28;20238;-61
2024/01/08 00:31:58;;;;;;;15.57;14.50;;;-2.30;99.90;;;;;;4964557;28;20257;-61
2024/01/08 00:34:27;;;;;;;15.80;14.70;;;-2.30;99.90;;;;;;4954140;28;20204;-61
2024/01/08 00:36:54;;;;;;;15.67;14.57;;;-2.30;99.90;;;;;;4969344;28;20274;-61
2024/01/08 00:39:21;;;;;;;15.80;14.80;;;-2.30;99.90;;;;;;4969596;28;20230;-61
2024/01/08 00:41:48;;;;;;;15.80;14.77;;;-2.20;99.90;;;;;;4951510;28;20202;-61
2024/01/08 00:44:15;;;;;;;16.20;14.90;;;-2.20;99.90;;;;;;4952992;28;20194;-61
2024/01/08 00:46:42;;;;;;;16.57;15.17;;;-2.10;99.90;;;;;;4954641;28;20863;-61
2024/01/08 00:49:09;;;;;;;16.10;15.00;;;-2.10;99.90;;;;;;4965918;28;20198;-61
2024/01/08 00:51:36;;;;;;;15.60;14.40;;;-2.10;99.90;;;;;;4953025;28;20293;-61
2024/01/08 00:54:03;;;;;;;15.40;14.30;;;-2.10;99.90;;;;;;4968958;28;20198;-61
2024/01/08 00:56:30;;;;;;;16.10;14.90;;;-2.10;99.90;;;;;;4952435;28;20617;-61
2024/01/08 00:58:57;;;;;;;15.80;14.67;;;-2.00;99.90;;;;;;4970300;28;20213;-61
2024/01/08 01:01:26;;;;;;;16.20;15.00;;;-2.00;99.90;;;;;;4954580;28;20210;-61
2024/01/08 01:03:53;;;;;;;15.67;14.57;;;-2.00;99.90;;;;;;4945305;28;20205;-61
2024/01/08 01:06:21;;;;;;;15.53;14.23;;;-1.90;99.90;;;;;;4960555;28;20194;-61
2024/01/08 01:08:48;;;;;;;15.73;14.63;;;-1.90;99.90;;;;;;4962491;28;20567;-61
2024/01/08 01:11:16;;;;;;;15.73;14.63;;;-2.00;99.90;;;;;;4970441;28;20273;-61
2024/01/08 01:13:43;;;;;;;16.13;15.00;;;-2.00;99.90;;;;;;4951845;28;20209;-61
2024/01/08 01:16:10;;;;;;;15.63;14.53;;;-1.90;99.90;;;;;;4945397;29;20211;-61
2024/01/08 01:18:37;;;;;;;15.47;14.40;;;-2.00;99.90;;;;;;4949996;28;20724;-61
2024/01/08 01:21:04;;;;;;;15.63;14.63;;;-1.90;99.90;;;;;;4953599;28;20222;-61
2024/01/08 01:23:32;;;;;;;15.80;14.70;;;-1.90;99.90;;;;;;4969297;28;20191;-61
2024/01/08 01:25:59;;;;;;;16.60;15.43;;;-1.90;99.90;;;;;;4948616;28;20194;-61
2024/01/08 01:28:26;;;;;;;16.17;14.83;;;-2.00;99.90;;;;;;4958668;28;20278;-61
2024/01/08 01:30:53;;;;;;;16.23;15.03;;;-2.00;99.90;;;;;;4971407;28;20253;-61
2024/01/08 01:33:20;;;;;;;15.10;14.10;;;-1.90;99.90;;;;;;4953190;28;20300;-61
2024/01/08 01:35:47;;;;;;;15.73;14.53;;;-1.80;99.90;;;;;;4965741;28;20317;-62
2024/01/08 01:38:15;;;;;;;15.43;14.33;;;-1.80;99.90;;;;;;4971760;28;20238;-62
2024/01/08 01:40:42;;;;;;;15.67;14.47;;;-1.80;99.90;;;;;;4971932;28;20241;-61
2024/01/08 01:43:25;;;;;;;16.03;14.83;;;-1.80;99.90;;;;;;4955016;28;20275;-62
2024/01/08 01:45:58;;;;;;;16.97;15.53;;;-1.80;99.90;;;;;;4968626;28;20217;-60
2024/01/08 01:48:25;;;;;;;16.10;14.90;;;-1.80;99.90;;;;;;4964058;28;20614;-60
2024/01/08 01:50:52;;;;;;;16.33;15.03;;;-1.80;99.90;;;;;;4972073;28;20542;-61
2024/01/08 01:53:20;;;;;;;15.60;14.13;;;-1.80;99.90;;;;;;4971123;28;20198;-60
2024/01/08 01:55:47;;;;;;;15.87;14.80;;;-1.80;99.90;;;;;;4971311;28;20292;-60
2024/01/08 01:58:15;;;;;;;15.37;14.30;;;-1.90;99.90;;;;;;4965411;28;20191;-60
2024/01/08 02:00:42;;;;;;;16.27;15.07;;;-1.80;99.90;;;;;;4967425;28;20195;-60
2024/01/08 02:03:10;;;;;;;15.83;14.53;;;-1.80;99.90;;;;;;4941683;28;20549;-60
2024/01/08 02:05:37;;;;;;;15.97;14.77;;;-1.80;99.90;;;;;;4953596;28;20198;-60
2024/01/08 02:08:06;;;;;;;16.70;15.30;;;-1.80;99.90;;;;;;4934973;28;20218;-60
2024/01/08 02:10:33;;;;;;;15.37;14.37;;;-1.90;99.90;;;;;;4954211;28;20212;-60
2024/01/08 02:13:00;;;;;;;16.83;15.30;;;-1.80;99.90;;;;;;4968598;28;20206;-61
2024/01/08 02:15:27;;;;;;;15.77;14.63;;;-1.80;99.90;;;;;;4967894;28;20563;-60
2024/01/08 02:17:55;;;;;;;15.20;14.20;;;-1.90;99.90;;;;;;4949245;28;20209;-61
2024/01/08 02:20:22;;;;;;;16.27;14.70;;;-1.80;99.90;;;;;;4964734;28;20187;-61
2024/01/08 02:22:49;;;;;;;16.40;15.17;;;-1.80;99.90;;;;;;4931587;28;20195;-60
2024/01/08 02:25:16;;;;;;;16.43;15.23;;;-1.80;99.90;;;;;;4968771;28;20209;-61
2024/01/08 02:27:43;;;;;;;15.50;14.47;;;-1.90;99.90;;;;;;4949861;28;20205;-60
2024/01/08 02:30:10;;;;;;;15.80;14.70;;;-1.80;99.90;;;;;;4967301;28;20794;-60
2024/01/08 02:32:37;;;;;;;15.23;14.23;;;-1.80;99.90;;;;;;4952106;28;20217;-61
2024/01/08 02:35:05;;;;;;;15.83;14.73;;;-1.80;99.90;;;;;;4951025;28;20257;-61
2024/01/08 02:37:32;;;;;;;16.20;15.00;;;-1.80;99.90;;;;;;4936270;28;20221;-61
2024/01/08 02:39:59;;;;;;;15.57;14.47;;;-1.80;99.90;;;;;;4966823;28;20689;-61
2024/01/08 02:42:26;;;;;;;15.57;14.50;;;-1.90;99.90;;;;;;4970008;28;20234;-61
2024/01/08 02:44:54;;;;;;;14.80;13.87;;;-1.90;99.90;;;;;;4964377;28;20548;-61
2024/01/08 02:47:21;;;;;;;15.87;14.77;;;-1.80;99.90;;;;;;4963876;28;20191;-60
2024/01/08 02:49:48;;;;;;;14.93;13.93;;;-1.80;99.90;;;;;;4952491;28;20202;-60
2024/01/08 02:52:15;;;;;;;14.47;13.50;;;-1.80;99.90;;;;;;4967251;28;20301;-60
2024/01/08 02:54:42;;;;;;;15.80;14.70;;;-1.80;99.90;;;;;;4951507;28;20203;-60
2024/01/08 02:57:09;;;;;;;15.53;14.50;;;-1.80;99.90;;;;;;4951970;28;20284;-60
2024/01/08 02:59:36;;;;;;;16.37;14.97;;;-1.70;99.90;;;;;;4963406;28;20787;-61
2024/01/08 03:06:02;;;;;;;16.03;14.73;;;-1.80;99.90;;;;;;4959377;28;20193;-61
2024/01/08 03:08:29;;;;;;;16.50;15.30;;;-1.80;99.90;;;;;;4964241;28;20189;-61
2024/01/08 03:10:56;;;;;;;16.03;14.87;;;-1.80;99.90;;;;;;4951322;28;20310;-61
2024/01/08 03:13:23;;;;;;;15.73;14.43;;;-1.80;99.90;;;;;;4967578;28;20205;-61
2024/01/08 03:15:50;;;;;;;17.73;15.43;;;-1.80;99.90;;;;;;4965447;28;20210;-61
2024/01/08 03:18:17;;;;;;;16.77;15.17;;;-1.80;99.90;;;;;;4966024;28;20198;-61
2024/01/08 03:20:45;;;;;;;15.90;14.73;;;-1.80;99.90;;;;;;4966737;28;20194;-61
2024/01/08 03:23:11;;;;;;;16.77;15.50;;;-1.80;99.90;;;;;;4964215;28;20222;-60
2024/01/08 03:25:38;;;;;;;16.43;15.13;;;-1.80;99.90;;;;;;4952263;28;20206;-61
2024/01/08 03:28:05;;;;;;;17.07;15.50;;;-1.80;99.90;;;;;;4964418;28;20312;-61
2024/01/08 03:30:32;;;;;;;16.90;15.50;;;-1.80;99.90;;;;;;4966086;28;20655;-61
2024/01/08 03:33:00;;;;;;;17.73;16.33;;;-1.80;99.90;;;;;;4946864;28;20510;-61
2024/01/08 03:35:28;;;;;;;17.80;16.40;;;-1.80;99.90;;;;;;4963455;28;20690;-61
2024/01/08 03:37:55;;;;;;;18.27;16.40;;;-1.80;99.90;;;;;;4951225;28;20230;-61
2024/01/08 03:40:22;;;;;;;16.10;15.00;;;-1.70;99.90;;;;;;4934366;28;20541;-60
2024/01/08 03:42:49;;;;;;;15.77;14.73;;;-1.70;99.90;;;;;;4951327;28;20674;-61
2024/01/08 03:45:16;;;;;;;17.07;15.57;;;-1.80;99.90;;;;;;4947617;28;20214;-62
2024/01/08 03:47:43;;;;;;;17.07;15.60;;;-1.70;99.90;;;;;;4950617;28;20302;-60
2024/01/08 03:50:10;;;;;;;16.33;15.10;;;-1.80;99.90;;;;;;4967627;28;20194;-61
2024/01/08 03:52:37;;;;;;;17.73;16.13;;;-1.80;99.90;;;;;;4965657;28;20292;-60
2024/01/08 03:55:06;;;;;;;17.97;16.23;;;-1.70;99.90;;;;;;4931935;29;20226;-60
2024/01/08 03:57:33;;;;;;;16.93;15.63;;;-1.70;99.90;;;;;;4966910;28;20741;-60
2024/01/08 04:00:00;;;;;;;17.57;16.17;;;-1.80;99.90;;;;;;4949340;28;21219;-61
2024/01/08 04:02:40;;;;;;;15.57;14.63;;;-1.70;99.90;;;;;;4951798;28;20722;-60
2024/01/08 04:05:11;;;;;;;17.90;16.43;;;-1.70;99.90;;;;;;4966564;28;20197;-61
2024/01/08 04:07:39;;;;;;;17.30;15.90;;;-1.70;99.90;;;;;;4947913;28;20517;-60
2024/01/08 04:10:07;;;;;;;16.13;14.93;;;-1.70;99.90;;;;;;4950635;28;20313;-60
2024/01/08 04:12:34;;;;;;;16.80;15.60;;;-1.70;99.90;;;;;;4950631;28;20238;-60
2024/01/08 04:15:01;;;;;;;16.27;15.07;;;-1.70;99.90;;;;;;4950946;28;20547;-61
2024/01/08 04:17:28;;;;;;;16.83;15.53;;;-1.70;99.90;;;;;;4961788;28;20852;-60
2024/01/08 04:19:55;;;;;;;16.97;15.47;;;-1.70;99.90;;;;;;4947572;28;20191;-60
2024/01/08 04:22:22;;;;;;;17.23;15.60;;;-1.60;99.90;;;;;;4965095;28;20285;-60
2024/01/08 04:24:49;;;;;;;16.13;14.93;;;-1.70;99.90;;;;;;4949810;28;20229;-60
2024/01/08 04:27:16;;;;;;;16.57;15.33;;;-1.70;99.90;;;;;;4966550;28;20194;-60
2024/01/08 04:29:43;;;;;;;16.90;15.60;;;-1.60;99.90;;;;;;4965572;28;20647;-60
2024/01/08 04:32:10;;;;;;;16.40;15.20;;;-1.60;99.90;;;;;;4964747;28;20908;-60
2024/01/08 04:34:37;;;;;;;17.13;15.53;;;-1.70;99.90;;;;;;4948484;28;20594;-60
2024/01/08 04:37:03;;;;;;;17.63;16.03;;;-1.70;99.90;;;;;;4951440;28;20221;-60
2024/01/08 04:39:30;;;;;;;16.87;15.63;;;-1.70;99.90;;;;;;4945272;28;20292;-59
2024/01/08 04:41:57;;;;;;;17.77;16.27;;;-1.70;99.90;;;;;;4961294;28;20203;-59
2024/01/08 04:44:25;;;;;;;17.40;15.93;;;-1.60;99.90;;;;;;4968792;28;20270;-59
2024/01/08 04:46:52;;;;;;;16.53;15.33;;;-1.60;99.90;;;;;;4966207;28;20298;-59
2024/01/08 04:49:21;;;;;;;17.87;16.20;;;-1.60;99.90;;;;;;4966788;28;20535;-59
2024/01/08 04:51:50;;;;;;;16.73;15.43;;;-1.60;99.90;;;;;;4953201;28;20639;-59
2024/01/08 04:54:17;;;;;;;17.10;15.80;;;-1.60;99.90;;;;;;4953374;28;20722;-59
2024/01/08 04:56:44;;;;;;;17.93;16.50;;;-1.60;99.90;;;;;;4970563;28;20234;-59
2024/01/08 04:59:11;;;;;;;17.03;15.73;;;-1.60;99.90;;;;;;4967487;28;20215;-59
2024/01/08 05:01:38;;;;;;;17.40;16.03;;;-1.60;99.90;;;;;;4968330;28;20195;-59
2024/01/08 05:04:05;;;;;;;16.77;15.37;;;-1.60;99.90;;;;;;4971314;28;20537;-59
2024/01/08 05:06:35;;;;;;;17.47;16.07;;;-1.60;99.90;;;;;;4957633;28;20716;-59
2024/01/08 05:09:02;;;;;;;17.63;16.33;;;-1.50;99.90;;;;;;4934692;28;20706;-59
2024/01/08 05:11:29;;;;;;;17.43;16.13;;;-1.60;99.90;;;;;;4954212;28;20617;-59
2024/01/08 05:13:57;;;;;;;17.50;16.10;;;-1.60;99.90;;;;;;4950701;28;20619;-59
2024/01/08 05:16:24;;;;;;;19.00;17.30;;;-1.50;99.90;;;;;;4964476;28;20297;-59
2024/01/08 05:18:50;;;;;;;17.47;16.00;;;-1.50;99.90;;;;;;4970480;28;20198;-59
2024/01/08 05:21:18;;;;;;;18.00;16.43;;;-1.50;99.90;;;;;;4964029;28;20218;-59
2024/01/08 05:23:45;;;;;;;17.63;16.20;;;-1.60;99.90;;;;;;4935812;28;20210;-59
2024/01/08 05:26:13;;;;;;;17.43;16.07;;;-1.50;99.90;;;;;;4947248;28;20260;-59
2024/01/08 05:28:40;;;;;;;17.67;16.37;;;-1.50;99.90;;;;;;4966894;28;20326;-59
2024/01/08 05:31:07;;;;;;;15.93;14.83;;;-1.50;99.90;;;;;;4964440;28;20615;-62
2024/01/08 05:33:34;;;;;;;17.80;16.30;;;-1.50;99.90;;;;;;4961982;28;20205;-60
2024/01/08 05:36:02;;;;;;;18.00;16.50;;;-1.50;99.90;;;;;;4954319;28;20221;-60
2024/01/08 05:38:29;;;;;;;17.47;16.17;;;-1.50;99.90;;;;;;4969192;28;20667;-61
2024/01/08 05:40:56;;;;;;;17.07;15.87;;;-1.50;99.90;;;;;;4969642;28;20274;-61
2024/01/08 05:43:23;;;;;;;17.07;15.70;;;-1.40;99.90;;;;;;4960107;28;20249;-61
2024/01/08 05:45:51;;;;;;;16.80;15.47;;;-1.40;99.90;;;;;;4952379;28;20211;-62
2024/01/08 05:48:18;;;;;;;16.20;15.10;;;-1.40;99.90;;;;;;4951336;28;20194;-62
2024/01/08 05:50:46;;;;;;;16.47;15.37;;;-1.40;99.90;;;;;;4951254;28;20201;-62
2024/01/08 05:53:13;;;;;;;16.80;15.63;;;-1.40;99.90;;;;;;4947679;28;20203;-61
2024/01/08 05:55:40;;;;;;;16.37;15.30;;;-1.40;99.90;;;;;;4969128;28;20194;-62
2024/01/08 05:58:07;;;;;;;16.23;15.13;;;-1.40;99.90;;;;;;4953839;28;20226;-62
2024/01/08 06:00:34;;;;;;;17.20;15.97;;;-1.40;99.90;;;;;;4972542;28;20191;-62
2024/01/08 06:03:02;;;;;;;16.90;15.60;;;-1.40;99.90;;;;;;4963541;28;20195;-62
2024/01/08 06:05:29;;;;;;;16.57;15.47;;;-1.40;99.90;;;;;;4971827;28;20209;-61
2024/01/08 06:07:56;;;;;;;17.37;16.07;;;-1.40;99.90;;;;;;4970944;28;20278;-61
2024/01/08 06:10:23;;;;;;;17.30;16.20;;;-1.40;99.90;;;;;;4969496;28;20257;-62
2024/01/08 06:12:50;;;;;;;16.47;15.20;;;-1.30;99.90;;;;;;4928417;28;20227;-61
2024/01/08 06:15:17;;;;;;;16.50;15.30;;;-1.30;99.90;;;;;;4968614;28;20250;-61
2024/01/08 06:17:45;;;;;;;17.13;15.90;;;-1.40;99.90;;;;;;4967855;28;20210;-62
2024/01/08 06:20:13;;;;;;;16.93;15.73;;;-1.40;99.90;;;;;;4947706;28;20203;-61
2024/01/08 06:22:40;;;;;;;18.33;16.87;;;-1.30;99.90;;;;;;4936132;28;20202;-61
2024/01/08 06:25:08;;;;;;;16.87;15.67;;;-1.40;99.90;;;;;;4969715;28;20550;-61
2024/01/08 06:27:34;;;;;;;17.33;15.90;;;-1.40;99.90;;;;;;4970072;28;20273;-61
2024/01/08 06:30:01;;;;;;;18.17;16.80;;;-1.40;99.90;;;;;;4950621;28;20206;-62
2024/01/08 06:32:28;;;;;;;17.97;16.67;;;-1.40;99.90;;;;;;4949167;28;20379;-61
2024/01/08 06:34:56;;;;;;;17.00;15.80;;;-1.40;99.90;;;;;;4969680;28;20218;-61
2024/01/08 06:37:23;;;;;;;16.47;15.33;;;-1.40;99.90;;;;;;4949163;28;20221;-63
2024/01/08 06:39:50;;;;;;;17.37;16.17;;;-1.50;99.90;;;;;;4967850;28;20626;-61
2024/01/08 06:42:17;;;;;;;17.80;16.40;;;-1.50;99.90;;;;;;4960642;28;20256;-61
2024/01/08 06:44:44;;;;;;;17.80;16.27;;;-1.50;99.90;;;;;;4953501;28;20221;-61
2024/01/08 06:47:11;;;;;;;17.83;16.30;;;-1.50;99.90;;;;;;4935779;28;20210;-62
2024/01/08 06:49:38;;;;;;;18.50;16.77;;;-1.50;99.90;;;;;;4967633;28;20213;-61
2024/01/08 06:52:06;;;;;;;24.10;21.67;;;-1.50;99.90;;;;;;4970366;28;20237;-62
2024/01/08 06:54:33;;;;;;;17.83;16.63;;;-1.50;99.90;;;;;;4970485;28;20202;-61
2024/01/08 06:57:00;;;;;;;17.43;16.13;;;-1.50;99.90;;;;;;4953117;28;20210;-61
2024/01/08 06:59:27;;;;;;;16.70;15.60;;;-1.50;99.90;;;;;;4936658;28;20240;-61
2024/01/08 07:01:54;;;;;;;17.80;16.30;;;-1.50;99.90;;;;;;4970828;28;20222;-61
2024/01/08 07:04:22;;;;;;;17.70;16.40;;;-1.50;99.90;;;;;;4952561;28;20202;-61
2024/01/08 07:06:49;;;;;;;17.40;15.97;;;-1.50;99.90;;;;;;4952430;28;20516;-61
2024/01/08 07:09:16;;;;;;;17.23;15.90;;;-1.50;99.90;;;;;;4970448;28;20202;-61
2024/01/08 07:11:43;;;;;;;17.90;16.70;;;-1.50;99.90;;;;;;4941788;28;20702;-62
2024/01/08 07:14:10;;;;;;;16.80;15.60;;;-1.50;99.90;;;;;;4935903;28;20241;-61
2024/01/08 07:16:37;;;;;;;18.23;16.73;;;-1.50;99.90;;;;;;4952556;28;20237;-61
2024/01/08 07:19:05;;;;;;;17.03;15.83;;;-1.50;99.90;;;;;;4952033;28;20580;-61
2024/01/08 07:21:32;;;;;;;17.30;15.73;;;-1.50;99.90;;;;;;4969473;28;20217;-61
2024/01/08 07:23:59;;;;;;;17.27;16.07;;;-1.50;99.90;;;;;;4952511;28;20257;-61
2024/01/08 07:26:26;;;;;;;17.50;16.13;;;-1.50;99.90;;;;;;4951837;28;20241;-62
2024/01/08 07:28:53;;;;;;;18.23;16.93;;;-1.40;99.90;;;;;;4951726;28;20221;-61
2024/01/08 07:31:20;;;;;;;16.07;15.07;;;-1.50;99.90;;;;;;4952051;28;20621;-61
2024/01/08 07:33:47;;;;;;;18.50;17.10;;;-1.40;99.90;;;;;;4969848;28;20268;-61
2024/01/08 07:36:15;;;;;;;17.47;16.17;;;-1.40;99.90;;;;;;4936055;28;20210;-62
2024/01/08 07:38:42;;;;;;;18.80;16.83;;;-1.40;99.90;;;;;;4966360;28;20674;-62
2024/01/08 07:41:11;;;;;;;17.53;16.23;;;-1.40;99.90;;;;;;4951692;28;20694;-61
2024/01/08 07:43:38;;;;;;;17.13;15.93;;;-1.40;99.90;;;;;;4972790;28;20196;-61
2024/01/08 07:46:05;;;;;;;16.63;15.47;;;-1.40;99.90;;;;;;4953089;28;20209;-61
2024/01/08 07:48:32;;;;;;;17.27;15.97;;;-1.40;99.90;;;;;;4968870;28;20216;-62
2024/01/08 07:51:00;;;;;;;16.23;15.03;;;-1.40;99.90;;;;;;4952907;28;20204;-61
2024/01/08 07:53:28;;;;;;;17.20;15.80;;;-1.40;99.90;;;;;;4968850;28;20190;-61
2024/01/08 07:55:55;;;;;;;16.43;15.20;;;-1.40;99.90;;;;;;4951261;28;20214;-62
2024/01/08 07:58:22;;;;;;;16.37;15.27;;;-1.40;99.90;;;;;;4968805;28;20225;-61
2024/01/08 08:01:01;;;;;;;16.67;15.53;;;-1.40;99.90;;;;;;4952904;28;20301;-62
2024/01/08 08:03:29;;;;;;;16.63;15.43;;;-1.40;99.90;;;;;;4951779;28;20566;-61
2024/01/08 08:05:58;;;;;;;16.57;15.47;;;-1.40;99.90;;;;;;4936408;28;20228;-62
2024/01/08 08:08:25;;;;;;;16.30;15.20;;;-1.40;99.90;;;;;;4952312;28;20216;-62
2024/01/08 08:10:53;;;;;;;17.60;16.30;;;-1.40;99.90;;;;;;4969400;28;20722;-61
2024/01/08 08:13:20;;;;;;;16.93;15.73;;;-1.40;99.90;;;;;;4968855;28;20189;-62
2024/01/08 08:15:46;;;;;;;17.23;16.03;;;-1.50;99.90;;;;;;4964987;28;20199;-62
2024/01/08 08:18:13;;;;;;;16.93;15.83;;;-1.50;99.90;;;;;;4951549;28;20304;-62
2024/01/08 08:20:41;;;;;;;17.10;15.93;;;-1.60;99.90;;;;;;4976651;28;20676;-61
2024/01/08 08:23:08;;;;;;;17.13;15.93;;;-1.60;99.90;;;;;;4970199;28;20597;-62
2024/01/08 08:25:35;;;;;;;17.43;16.23;;;-1.70;99.90;;;;;;4955177;28;20229;-62
2024/01/08 08:28:03;;;;;;;17.10;16.00;;;-1.70;99.90;;;;;;4966316;28;20236;-61
2024/01/08 08:30:30;;;;;;;17.07;15.87;;;-1.80;99.90;;;;;;4972391;28;20202;-61
2024/01/08 08:32:58;;;;;;;17.20;16.10;;;-1.80;99.90;;;;;;4972662;28;20197;-62
2024/01/08 08:35:26;;;;;;;17.20;16.10;;;-1.80;99.90;;;;;;4955816;28;20216;-62
2024/01/08 08:37:56;;;;;;;17.67;16.47;;;-1.70;99.90;;;;;;4971938;28;20210;-62
2024/01/08 08:40:23;;;;;;;16.83;15.73;;;-1.80;99.90;;;;;;4972362;28;20735;-61
2024/01/08 08:42:51;;;;;;;17.40;16.13;;;-1.80;99.90;;;;;;4955368;28;20210;-61
2024/01/08 08:45:18;;;;;;;17.90;16.57;;;-1.80;99.90;;;;;;4973377;28;20210;-62
2024/01/08 08:47:45;;;;;;;18.10;16.80;;;-1.80;99.90;;;;;;4955425;28;20213;-63
2024/01/08 08:50:12;;;;;;;17.90;16.60;;;-1.70;99.90;;;;;;4970891;28;20207;-62
2024/01/08 08:52:40;;;;;;;17.30;16.10;;;-1.70;99.90;;;;;;4943768;28;20233;-62
2024/01/08 08:55:07;;;;;;;17.90;16.50;;;-1.70;99.90;;;;;;4955567;28;20210;-61
2024/01/08 08:57:37;;;;;;;17.93;16.40;;;-1.70;99.90;;;;;;4972018;28;20249;-61
2024/01/08 09:00:09;;;;;;;18.13;16.83;;;-1.80;99.90;;;;;;4965233;28;20190;-61
2024/01/08 09:02:37;;;;;;;17.80;16.60;;;-1.70;99.90;;;;;;4958532;28;20221;-61
2024/01/08 09:05:05;;;;;;;18.47;17.10;;;-1.70;99.90;;;;;;4972073;28;20190;-61
2024/01/08 09:07:33;;;;;;;18.20;16.80;;;-1.70;99.90;;;;;;4944976;28;20206;-60
2024/01/08 09:10:01;;;;;;;18.57;17.27;;;-1.70;99.90;;;;;;4971391;28;20260;-62
2024/01/08 09:12:28;;;;;;;18.03;16.73;;;-1.70;99.90;;;;;;4955595;28;20276;-61
2024/01/08 09:14:55;;;;;;;18.40;16.97;;;-1.70;99.90;;;;;;4971867;28;20198;-61
2024/01/08 09:17:22;;;;;;;18.23;16.83;;;-1.80;99.90;;;;;;4954704;28;20268;-61
2024/01/08 09:19:51;;;;;;;19.03;17.00;;;-1.70;99.90;;;;;;4971846;28;20205;-61
2024/01/08 09:22:24;;;;;;;18.10;16.80;;;-1.50;99.90;;;;;;4953570;28;20209;-62
2024/01/08 09:24:50;;;;;;;18.93;17.43;;;-1.40;99.90;;;;;;4970704;28;20190;-61
2024/01/08 09:27:18;;;;;;;19.27;17.83;;;-0.70;99.90;;;;;;4972651;28;20234;-62
2024/01/08 09:29:45;;;;;;;19.47;17.97;;;2.80;99.90;;;;;;4967346;28;20202;-61
2024/01/08 09:32:11;;;;;;;19.10;17.70;;;4.30;99.90;;;;;;4939986;28;20210;-61
2024/01/08 09:34:39;;;;;;;20.03;18.40;;;2.90;99.90;;;;;;4953503;28;20674;-61
2024/01/08 09:37:06;;;;;;;20.07;18.60;;;3.20;99.90;;;;;;4971896;28;20218;-61
2024/01/08 09:39:33;;;;;;;20.17;18.60;;;4.10;99.90;;;;;;4972208;28;20652;-61
2024/01/08 09:42:03;;;;;;;20.07;18.57;;;4.80;99.90;;;;;;4955510;28;20195;-61
2024/01/08 09:44:32;;;;;;;20.07;18.50;;;3.60;99.90;;;;;;4971037;28;20729;-62
2024/01/08 09:47:03;;;;;;;20.33;18.63;;;3.00;99.90;;;;;;4953046;28;20244;-61
2024/01/08 09:49:34;;;;;;;20.47;18.67;;;3.70;99.90;;;;;;4953687;28;20198;-61
2024/01/08 09:52:01;;;;;;;20.67;19.07;;;3.20;99.90;;;;;;4953737;28;20396;-61
2024/01/08 09:54:31;;;;;;;20.67;19.07;;;2.90;99.90;;;;;;4970392;28;20186;-61
2024/01/08 09:56:58;;;;;;;20.90;19.10;;;3.40;99.90;;;;;;4940844;28;20556;-60
2024/01/08 09:59:26;;;;;;;20.80;19.20;;;3.10;99.90;;;;;;4969057;28;20198;-60
2024/01/08 10:01:55;;;;;;;20.80;19.10;;;2.00;99.90;;;;;;4970878;28;20569;-61
2024/01/08 10:04:26;;;;;;;21.10;19.40;;;3.00;99.90;;;;;;4937714;28;20613;-61
2024/01/08 10:07:06;;;;;;;20.20;18.70;;;3.30;99.90;;;;;;4954505;28;20202;-62
2024/01/08 10:09:35;;;;;;;21.33;19.63;;;4.00;99.90;;;;;;4954334;28;20194;-60
2024/01/08 10:12:02;;;;;;;21.10;19.40;;;2.50;99.90;;;;;;4953316;28;20305;-61
2024/01/08 10:14:30;;;;;;;20.93;19.33;;;2.50;99.90;;;;;;4952220;28;20626;-62
2024/01/08 10:16:57;;;;;;;21.00;19.40;;;2.30;99.90;;;;;;4970979;28;20194;-61
2024/01/08 10:19:29;;;;;;;21.03;19.40;;;3.10;99.90;;;;;;4954445;28;20725;-62
2024/01/08 10:22:07;;;;;;;22.70;20.80;;;3.10;99.90;;;;;;4969814;28;20195;-61
2024/01/08 10:24:35;;;;;;;22.07;20.27;;;3.60;99.90;;;;;;4954169;28;20297;-61
2024/01/08 10:27:03;;;;;;;21.47;19.77;;;3.70;99.90;;;;;;4954490;28;20226;-61
2024/01/08 10:29:31;;;;;;;22.10;20.20;;;2.50;99.90;;;;;;4970632;28;20204;-62
2024/01/08 10:31:59;;;;;;;21.50;19.80;;;1.90;99.90;;;;;;4953403;28;20639;-61
2024/01/08 10:34:26;;;;;;;21.00;19.30;;;2.00;99.90;;;;;;4936704;28;20238;-61
2024/01/08 10:36:55;;;;;;;21.97;20.00;;;2.40;99.90;;;;;;4971114;28;20187;-61
2024/01/08 10:39:22;;;;;;;26.43;23.77;;;2.70;99.90;;;;;;4967437;28;20615;-61
2024/01/08 10:42:09;;;;;;;23.90;21.73;;;4.50;99.90;;;;;;4946408;28;20203;-62
2024/01/08 10:44:36;;;;;;;22.37;20.47;;;4.10;99.90;;;;;;4970452;28;20197;-61
2024/01/08 10:47:09;;;;;;;21.37;19.67;;;3.60;99.90;;;;;;4937302;28;20190;-61
2024/01/08 10:49:40;;;;;;;21.13;19.53;;;2.70;99.90;;;;;;4952616;28;20213;-61
2024/01/08 10:52:30;;;;;;;21.60;19.80;;;2.80;99.90;;;;;;4953240;28;20194;-61
2024/01/08 10:55:02;;;;;;;21.50;19.70;;;2.60;99.90;;;;;;4947278;28;20203;-61
2024/01/08 10:57:40;;;;;;;20.83;19.23;;;2.30;99.90;;;;;;4952990;28;20222;-62
2024/01/08 11:00:12;;;;;;;21.20;19.60;;;2.30;99.90;;;;;;4971089;28;20210;-61
2024/01/08 11:02:42;;;;;;;21.27;19.57;;;2.60;99.90;;;;;;4949098;28;20677;-62
2024/01/08 11:05:09;;;;;;;20.90;19.27;;;2.30;99.90;;;;;;4954735;28;20194;-60
2024/01/08 11:07:41;;;;;;;21.70;20.00;;;2.80;99.90;;;;;;4953202;28;20210;-61
2024/01/08 11:10:11;;;;;;;21.07;19.37;;;3.50;99.90;;;;;;4953615;28;20206;-61
2024/01/08 11:12:40;;;;;;;22.70;20.80;;;4.10;99.90;;;;;;4954098;28;20225;-61
2024/01/08 11:15:13;;;;;;;22.87;20.83;;;4.20;99.90;;;;;;4969669;28;20202;-61
2024/01/08 11:17:58;;;;;;;22.27;20.40;;;3.40;99.90;;;;;;4956861;28;20237;-62
2024/01/08 11:20:41;;;;;;;22.10;20.30;;;3.40;99.90;;;;;;4937113;28;20194;-62
2024/01/08 11:23:41;;;;;;;21.70;19.90;;;3.90;99.90;;;;;;4969843;28;20198;-62
2024/01/08 11:26:10;;;;;;;21.97;19.93;;;3.80;99.90;;;;;;4952707;28;20372;-62
2024/01/08 11:28:39;;;;;;;21.67;19.97;;;3.60;99.90;;;;;;4969710;28;20308;-61
2024/01/08 11:31:09;;;;;;;22.33;20.33;;;3.00;99.90;;;;;;4952446;28;20198;-61
2024/01/08 11:34:04;;;;;;;21.00;19.40;;;2.60;99.90;;;;;;4969442;28;20593;-61
2024/01/08 11:36:49;;;;;;;21.40;19.70;;;2.60;99.90;;;;;;4952698;28;20206;-61
2024/01/08 11:39:20;;;;;;;21.30;19.60;;;2.10;99.90;;;;;;4968776;28;20245;-61
2024/01/08 11:41:47;;;;;;;21.70;19.80;;;1.60;99.90;;;;;;4940862;28;20863;-61
2024/01/08 11:44:14;;;;;;;21.33;19.63;;;2.00;99.90;;;;;;4935628;28;20201;-61
2024/01/08 11:46:42;;;;;;;21.67;19.77;;;2.60;99.90;;;;;;4969911;28;20190;-61
2024/01/08 11:49:10;;;;;;;22.30;20.30;;;2.90;99.90;;;;;;4936252;28;20281;-61
2024/01/08 11:51:42;;;;;;;21.87;19.97;;;3.30;99.90;;;;;;4969539;28;20201;-60
2024/01/08 11:54:15;;;;;;;21.47;19.60;;;3.40;99.90;;;;;;4940992;28;20289;-61
2024/01/08 11:56:42;;;;;;;21.63;19.93;;;2.60;99.90;;;;;;4952872;28;20194;-61
2024/01/08 11:59:09;;;;;;;21.70;19.90;;;2.90;99.90;;;;;;4971973;28;20301;-61
2024/01/08 12:01:36;;;;;;;21.73;19.93;;;3.00;99.90;;;;;;4956609;28;20186;-61
2024/01/08 12:04:04;;;;;;;21.20;19.50;;;2.40;99.90;;;;;;4973106;28;20606;-61
2024/01/08 12:06:31;;;;;;;21.53;19.90;;;2.20;99.90;;;;;;4973838;28;20584;-61
2024/01/08 12:08:58;;;;;;;22.03;20.23;;;2.00;99.90;;;;;;4971392;28;20278;-61
2024/01/08 12:11:26;;;;;;;22.60;20.63;;;1.80;99.90;;;;;;4955715;28;20352;-61
2024/01/08 12:13:54;;;;;;;22.20;20.33;;;1.40;99.90;;;;;;4973039;28;20226;-61
2024/01/08 12:16:21;;;;;;;22.23;20.43;;;1.30;99.90;;;;;;4956307;28;20201;-61
2024/01/08 12:18:49;;;;;;;21.90;20.20;;;1.30;99.90;;;;;;4973391;28;20253;-61
2024/01/08 12:21:16;;;;;;;21.30;19.70;;;1.40;99.90;;;;;;4955497;28;20212;-61
2024/01/08 12:23:44;;;;;;;21.57;19.87;;;1.50;99.90;;;;;;4955098;28;20615;-61
2024/01/08 12:26:11;;;;;;;21.57;19.87;;;1.20;99.90;;;;;;4972841;28;20222;-61
2024/01/08 12:28:39;;;;;;;21.97;20.07;;;1.40;99.90;;;;;;4955321;28;20248;-60
2024/01/08 12:31:06;;;;;;;21.40;19.80;;;1.40;99.90;;;;;;4940229;28;20646;-61
2024/01/08 12:33:33;;;;;;;21.33;19.70;;;1.10;99.90;;;;;;4954262;28;20651;-61
2024/01/08 12:36:01;;;;;;;21.00;19.30;;;1.70;99.90;;;;;;4973040;28;20206;-61